sensor_id;sensor_type;location;lat;lon;timestamp;P1;durP1;ratioP1;P2;durP2;ratioP2
48052;SDS011;33824;51.600;5.718;2023-02-23T00:01:35;60.78;;;24.02;;
48052;SDS011;33824;51.600;5.718;2023-02-23T00:04:02;48.20;;;23.42;;
48052;SDS011;33824;51.600;5.718;2023-02-23T00:06:29;54.67;;;23.33;;
48052;SDS011;33824;51.600;5.718;2023-02-23T00:08:57;49.38;;;23.48;;
48052;SDS011;33824;51.600;5.718;2023-02-23T00:11:25;58.25;;;23.63;;
48052;SDS011;33824;51.600;5.718;2023-02-23T00:13:52;52.85;;;22.65;;
48052;SDS011;33824;51.600;5.718;2023-02-23T00:16:21;53.85;;;22.98;;
48052;SDS011;33824;51.600;5.718;2023-02-23T00:18:50;52.97;;;23.83;;
48052;SDS011;33824;51.600;5.718;2023-02-23T00:21:21;57.45;;;23.73;;
48052;SDS011;33824;51.600;5.718;2023-02-23T00:23:53;57.28;;;23.67;;
48052;SDS011;33824;51.600;5.718;2023-02-23T00:26:22;48.33;;;22.60;;
48052;SDS011;33824;51.600;5.718;2023-02-23T00:28:49;54.50;;;23.30;;
48052;SDS011;33824;51.600;5.718;2023-02-23T00:31:21;50.47;;;22.83;;
48052;SDS011;33824;51.600;5.718;2023-02-23T00:33:53;54.38;;;23.27;;
48052;SDS011;33824;51.600;5.718;2023-02-23T00:36:20;54.72;;;23.83;;
48052;SDS011;33824;51.600;5.718;2023-02-23T00:38:51;52.67;;;22.65;;
48052;SDS011;33824;51.600;5.718;2023-02-23T00:41:17;53.65;;;22.98;;
48052;SDS011;33824;51.600;5.718;2023-02-23T00:43:45;49.55;;;22.58;;
48052;SDS011;33824;51.600;5.718;2023-02-23T00:46:15;50.42;;;22.20;;
48052;SDS011;33824;51.600;5.718;2023-02-23T00:48:43;53.30;;;22.15;;
48052;SDS011;33824;51.600;5.718;2023-02-23T00:51:09;52.35;;;23.85;;
48052;SDS011;33824;51.600;5.718;2023-02-23T00:53:36;50.33;;;21.13;;
48052;SDS011;33824;51.600;5.718;2023-02-23T00:56:05;50.40;;;22.83;;
48052;SDS011;33824;51.600;5.718;2023-02-23T00:58:32;49.92;;;22.98;;
48052;SDS011;33824;51.600;5.718;2023-02-23T01:00:57;46.42;;;21.13;;
48052;SDS011;33824;51.600;5.718;2023-02-23T01:03:29;52.33;;;23.17;;
48052;SDS011;33824;51.600;5.718;2023-02-23T01:05:58;47.65;;;21.73;;
48052;SDS011;33824;51.600;5.718;2023-02-23T01:08:25;51.30;;;22.77;;
48052;SDS011;33824;51.600;5.718;2023-02-23T01:10:52;49.05;;;21.83;;
48052;SDS011;33824;51.600;5.718;2023-02-23T01:13:19;61.83;;;24.55;;
48052;SDS011;33824;51.600;5.718;2023-02-23T01:15:45;71.57;;;28.10;;
48052;SDS011;33824;51.600;5.718;2023-02-23T01:18:13;72.32;;;29.35;;
48052;SDS011;33824;51.600;5.718;2023-02-23T01:20:40;74.63;;;30.60;;
48052;SDS011;33824;51.600;5.718;2023-02-23T01:23:09;72.90;;;30.05;;
48052;SDS011;33824;51.600;5.718;2023-02-23T01:25:40;75.82;;;29.83;;
48052;SDS011;33824;51.600;5.718;2023-02-23T01:28:08;73.60;;;30.55;;
48052;SDS011;33824;51.600;5.718;2023-02-23T01:30:34;78.72;;;32.40;;
48052;SDS011;33824;51.600;5.718;2023-02-23T01:33:00;77.47;;;29.25;;
48052;SDS011;33824;51.600;5.718;2023-02-23T01:35:26;68.07;;;27.17;;
48052;SDS011;33824;51.600;5.718;2023-02-23T01:37:53;79.93;;;31.90;;
48052;SDS011;33824;51.600;5.718;2023-02-23T01:40:19;70.18;;;28.98;;
48052;SDS011;33824;51.600;5.718;2023-02-23T01:42:57;70.25;;;29.77;;
48052;SDS011;33824;51.600;5.718;2023-02-23T01:48:01;75.90;;;29.27;;
48052;SDS011;33824;51.600;5.718;2023-02-23T01:50:32;66.57;;;29.35;;
48052;SDS011;33824;51.600;5.718;2023-02-23T01:53:03;74.10;;;28.10;;
48052;SDS011;33824;51.600;5.718;2023-02-23T01:55:29;68.40;;;29.23;;
48052;SDS011;33824;51.600;5.718;2023-02-23T01:58:10;68.90;;;27.77;;
48052;SDS011;33824;51.600;5.718;2023-02-23T02:00:43;66.70;;;28.77;;
48052;SDS011;33824;51.600;5.718;2023-02-23T02:03:15;63.10;;;27.20;;
48052;SDS011;33824;51.600;5.718;2023-02-23T02:05:47;63.60;;;28.58;;
48052;SDS011;33824;51.600;5.718;2023-02-23T02:08:15;67.13;;;28.50;;
48052;SDS011;33824;51.600;5.718;2023-02-23T02:10:43;66.38;;;27.98;;
48052;SDS011;33824;51.600;5.718;2023-02-23T02:13:10;76.53;;;29.75;;
48052;SDS011;33824;51.600;5.718;2023-02-23T02:29:59;68.78;;;27.55;;
48052;SDS011;33824;51.600;5.718;2023-02-23T02:33:05;68.40;;;27.40;;
48052;SDS011;33824;51.600;5.718;2023-02-23T02:38:54;63.83;;;27.60;;
48052;SDS011;33824;51.600;5.718;2023-02-23T02:44:41;71.10;;;30.00;;
48052;SDS011;33824;51.600;5.718;2023-02-23T02:47:21;67.80;;;28.33;;
48052;SDS011;33824;51.600;5.718;2023-02-23T02:52:42;69.82;;;28.52;;
48052;SDS011;33824;51.600;5.718;2023-02-23T02:55:25;66.55;;;27.42;;
48052;SDS011;33824;51.600;5.718;2023-02-23T02:58:01;64.13;;;27.63;;
48052;SDS011;33824;51.600;5.718;2023-02-23T03:00:36;68.05;;;26.60;;
48052;SDS011;33824;51.600;5.718;2023-02-23T03:03:42;61.58;;;26.70;;
48052;SDS011;33824;51.600;5.718;2023-02-23T03:06:36;65.85;;;26.20;;
48052;SDS011;33824;51.600;5.718;2023-02-23T03:15:54;64.88;;;26.10;;
48052;SDS011;33824;51.600;5.718;2023-02-23T03:21:48;64.80;;;27.58;;
48052;SDS011;33824;51.600;5.718;2023-02-23T03:27:43;65.47;;;26.15;;
48052;SDS011;33824;51.600;5.718;2023-02-23T03:30:39;68.07;;;27.10;;
48052;SDS011;33824;51.600;5.718;2023-02-23T03:36:45;59.63;;;27.13;;
48052;SDS011;33824;51.600;5.718;2023-02-23T03:39:41;65.97;;;26.88;;
48052;SDS011;33824;51.600;5.718;2023-02-23T03:42:31;64.72;;;26.38;;
48052;SDS011;33824;51.600;5.718;2023-02-23T03:45:20;68.30;;;28.23;;
48052;SDS011;33824;51.600;5.718;2023-02-23T03:48:08;65.30;;;26.85;;
48052;SDS011;33824;51.600;5.718;2023-02-23T03:50:55;71.53;;;28.13;;
48052;SDS011;33824;51.600;5.718;2023-02-23T03:53:53;71.88;;;27.95;;
48052;SDS011;33824;51.600;5.718;2023-02-23T03:56:45;70.70;;;27.55;;
48052;SDS011;33824;51.600;5.718;2023-02-23T03:59:35;66.88;;;27.90;;
48052;SDS011;33824;51.600;5.718;2023-02-23T04:02:26;67.25;;;26.15;;
48052;SDS011;33824;51.600;5.718;2023-02-23T04:05:17;68.43;;;27.33;;
48052;SDS011;33824;51.600;5.718;2023-02-23T04:08:04;65.70;;;27.15;;
48052;SDS011;33824;51.600;5.718;2023-02-23T04:11:06;69.53;;;27.55;;
48052;SDS011;33824;51.600;5.718;2023-02-23T04:13:54;63.90;;;28.20;;
48052;SDS011;33824;51.600;5.718;2023-02-23T04:16:24;70.40;;;27.55;;
48052;SDS011;33824;51.600;5.718;2023-02-23T04:18:54;73.55;;;28.80;;
48052;SDS011;33824;51.600;5.718;2023-02-23T04:21:19;69.60;;;27.20;;
48052;SDS011;33824;51.600;5.718;2023-02-23T04:23:45;64.78;;;27.42;;
48052;SDS011;33824;51.600;5.718;2023-02-23T04:26:11;62.38;;;27.38;;
48052;SDS011;33824;51.600;5.718;2023-02-23T04:28:37;65.38;;;26.63;;
48052;SDS011;33824;51.600;5.718;2023-02-23T04:31:02;64.43;;;28.63;;
48052;SDS011;33824;51.600;5.718;2023-02-23T04:33:28;64.75;;;27.25;;
48052;SDS011;33824;51.600;5.718;2023-02-23T04:35:53;65.18;;;27.25;;
48052;SDS011;33824;51.600;5.718;2023-02-23T04:38:20;65.40;;;26.73;;
48052;SDS011;33824;51.600;5.718;2023-02-23T04:40:46;64.82;;;27.95;;
48052;SDS011;33824;51.600;5.718;2023-02-23T04:43:12;61.80;;;26.70;;
48052;SDS011;33824;51.600;5.718;2023-02-23T04:45:38;66.57;;;28.38;;
48052;SDS011;33824;51.600;5.718;2023-02-23T04:48:03;66.38;;;27.65;;
48052;SDS011;33824;51.600;5.718;2023-02-23T04:50:29;64.95;;;26.33;;
48052;SDS011;33824;51.600;5.718;2023-02-23T04:52:55;71.38;;;30.33;;
48052;SDS011;33824;51.600;5.718;2023-02-23T04:55:21;64.97;;;26.58;;
48052;SDS011;33824;51.600;5.718;2023-02-23T04:57:49;64.35;;;27.38;;
48052;SDS011;33824;51.600;5.718;2023-02-23T05:00:15;62.75;;;26.60;;
48052;SDS011;33824;51.600;5.718;2023-02-23T05:02:41;63.42;;;27.10;;
48052;SDS011;33824;51.600;5.718;2023-02-23T05:05:07;63.40;;;28.23;;
48052;SDS011;33824;51.600;5.718;2023-02-23T05:07:34;60.88;;;25.13;;
48052;SDS011;33824;51.600;5.718;2023-02-23T05:10:00;65.50;;;26.38;;
48052;SDS011;33824;51.600;5.718;2023-02-23T05:12:27;67.45;;;28.05;;
48052;SDS011;33824;51.600;5.718;2023-02-23T05:14:52;60.17;;;26.35;;
48052;SDS011;33824;51.600;5.718;2023-02-23T05:17:18;62.28;;;25.67;;
48052;SDS011;33824;51.600;5.718;2023-02-23T05:19:43;57.28;;;24.33;;
48052;SDS011;33824;51.600;5.718;2023-02-23T05:22:08;62.78;;;27.00;;
48052;SDS011;33824;51.600;5.718;2023-02-23T05:24:39;65.32;;;27.52;;
48052;SDS011;33824;51.600;5.718;2023-02-23T05:27:06;64.20;;;26.30;;
48052;SDS011;33824;51.600;5.718;2023-02-23T05:29:32;59.95;;;26.33;;
48052;SDS011;33824;51.600;5.718;2023-02-23T05:31:58;57.45;;;25.25;;
48052;SDS011;33824;51.600;5.718;2023-02-23T05:34:24;62.45;;;27.33;;
48052;SDS011;33824;51.600;5.718;2023-02-23T05:36:49;59.85;;;26.08;;
48052;SDS011;33824;51.600;5.718;2023-02-23T05:39:15;61.47;;;26.35;;
48052;SDS011;33824;51.600;5.718;2023-02-23T05:41:40;63.75;;;26.27;;
48052;SDS011;33824;51.600;5.718;2023-02-23T05:44:06;62.40;;;26.55;;
48052;SDS011;33824;51.600;5.718;2023-02-23T05:46:31;59.70;;;26.67;;
48052;SDS011;33824;51.600;5.718;2023-02-23T05:48:58;66.95;;;27.50;;
48052;SDS011;33824;51.600;5.718;2023-02-23T05:51:25;68.22;;;28.52;;
48052;SDS011;33824;51.600;5.718;2023-02-23T05:53:51;61.50;;;26.77;;
48052;SDS011;33824;51.600;5.718;2023-02-23T05:56:17;59.83;;;25.77;;
48052;SDS011;33824;51.600;5.718;2023-02-23T05:58:50;62.65;;;24.02;;
48052;SDS011;33824;51.600;5.718;2023-02-23T06:01:18;58.20;;;24.67;;
48052;SDS011;33824;51.600;5.718;2023-02-23T06:03:44;62.42;;;24.75;;
48052;SDS011;33824;51.600;5.718;2023-02-23T06:06:10;63.92;;;26.95;;
48052;SDS011;33824;51.600;5.718;2023-02-23T06:08:36;60.03;;;26.40;;
48052;SDS011;33824;51.600;5.718;2023-02-23T06:11:02;57.28;;;24.58;;
48052;SDS011;33824;51.600;5.718;2023-02-23T06:13:29;53.30;;;24.13;;
48052;SDS011;33824;51.600;5.718;2023-02-23T06:15:56;56.65;;;25.05;;
48052;SDS011;33824;51.600;5.718;2023-02-23T06:18:22;57.72;;;25.13;;
48052;SDS011;33824;51.600;5.718;2023-02-23T06:20:47;60.13;;;24.42;;
48052;SDS011;33824;51.600;5.718;2023-02-23T06:23:13;59.90;;;25.75;;
48052;SDS011;33824;51.600;5.718;2023-02-23T06:25:40;55.13;;;23.75;;
48052;SDS011;33824;51.600;5.718;2023-02-23T06:28:09;56.38;;;24.20;;
48052;SDS011;33824;51.600;5.718;2023-02-23T06:30:35;55.08;;;24.00;;
48052;SDS011;33824;51.600;5.718;2023-02-23T06:33:01;56.70;;;25.27;;
48052;SDS011;33824;51.600;5.718;2023-02-23T06:35:27;58.38;;;23.77;;
48052;SDS011;33824;51.600;5.718;2023-02-23T06:37:53;56.58;;;26.40;;
48052;SDS011;33824;51.600;5.718;2023-02-23T06:40:19;54.97;;;23.58;;
48052;SDS011;33824;51.600;5.718;2023-02-23T06:42:45;52.92;;;23.55;;
48052;SDS011;33824;51.600;5.718;2023-02-23T06:45:32;53.60;;;24.20;;
48052;SDS011;33824;51.600;5.718;2023-02-23T06:47:58;52.47;;;24.10;;
48052;SDS011;33824;51.600;5.718;2023-02-23T06:50:25;55.58;;;24.83;;
48052;SDS011;33824;51.600;5.718;2023-02-23T06:52:51;53.88;;;24.08;;
48052;SDS011;33824;51.600;5.718;2023-02-23T06:55:16;53.25;;;22.67;;
48052;SDS011;33824;51.600;5.718;2023-02-23T06:57:42;53.15;;;24.75;;
48052;SDS011;33824;51.600;5.718;2023-02-23T07:00:09;55.47;;;24.95;;
48052;SDS011;33824;51.600;5.718;2023-02-23T07:02:39;56.33;;;23.88;;
48052;SDS011;33824;51.600;5.718;2023-02-23T07:05:06;52.45;;;22.92;;
48052;SDS011;33824;51.600;5.718;2023-02-23T07:07:32;54.30;;;23.90;;
48052;SDS011;33824;51.600;5.718;2023-02-23T07:09:58;50.05;;;23.35;;
48052;SDS011;33824;51.600;5.718;2023-02-23T07:12:23;48.95;;;22.38;;
48052;SDS011;33824;51.600;5.718;2023-02-23T07:14:49;56.40;;;22.48;;
48052;SDS011;33824;51.600;5.718;2023-02-23T07:17:15;59.63;;;23.70;;
48052;SDS011;33824;51.600;5.718;2023-02-23T07:19:42;50.65;;;22.45;;
48052;SDS011;33824;51.600;5.718;2023-02-23T07:22:08;53.72;;;22.85;;
48052;SDS011;33824;51.600;5.718;2023-02-23T07:24:33;54.30;;;24.10;;
48052;SDS011;33824;51.600;5.718;2023-02-23T07:26:59;57.33;;;24.23;;
48052;SDS011;33824;51.600;5.718;2023-02-23T07:29:24;53.42;;;23.15;;
48052;SDS011;33824;51.600;5.718;2023-02-23T07:31:51;55.10;;;23.95;;
48052;SDS011;33824;51.600;5.718;2023-02-23T07:34:17;55.20;;;23.05;;
48052;SDS011;33824;51.600;5.718;2023-02-23T07:36:42;57.17;;;23.88;;
48052;SDS011;33824;51.600;5.718;2023-02-23T07:39:08;56.60;;;24.17;;
48052;SDS011;33824;51.600;5.718;2023-02-23T07:41:33;52.90;;;23.65;;
48052;SDS011;33824;51.600;5.718;2023-02-23T07:43:59;53.60;;;23.13;;
48052;SDS011;33824;51.600;5.718;2023-02-23T07:46:25;56.20;;;22.55;;
48052;SDS011;33824;51.600;5.718;2023-02-23T07:48:52;58.88;;;25.25;;
48052;SDS011;33824;51.600;5.718;2023-02-23T07:51:18;55.10;;;23.23;;
48052;SDS011;33824;51.600;5.718;2023-02-23T07:53:43;54.85;;;22.65;;
48052;SDS011;33824;51.600;5.718;2023-02-23T07:56:10;56.83;;;23.85;;
48052;SDS011;33824;51.600;5.718;2023-02-23T07:58:37;59.85;;;26.33;;
48052;SDS011;33824;51.600;5.718;2023-02-23T08:01:04;52.78;;;23.17;;
48052;SDS011;33824;51.600;5.718;2023-02-23T08:03:30;59.17;;;25.50;;
48052;SDS011;33824;51.600;5.718;2023-02-23T08:05:55;57.55;;;24.98;;
48052;SDS011;33824;51.600;5.718;2023-02-23T08:08:21;56.10;;;24.15;;
48052;SDS011;33824;51.600;5.718;2023-02-23T08:10:47;59.05;;;25.15;;
48052;SDS011;33824;51.600;5.718;2023-02-23T08:13:13;57.22;;;23.17;;
48052;SDS011;33824;51.600;5.718;2023-02-23T08:15:40;59.20;;;25.67;;
48052;SDS011;33824;51.600;5.718;2023-02-23T08:18:05;53.92;;;23.67;;
48052;SDS011;33824;51.600;5.718;2023-02-23T08:20:31;53.22;;;23.20;;
48052;SDS011;33824;51.600;5.718;2023-02-23T08:22:57;55.80;;;23.95;;
48052;SDS011;33824;51.600;5.718;2023-02-23T08:25:24;60.05;;;23.50;;
48052;SDS011;33824;51.600;5.718;2023-02-23T08:27:53;60.50;;;23.20;;
48052;SDS011;33824;51.600;5.718;2023-02-23T08:30:19;57.80;;;23.80;;
48052;SDS011;33824;51.600;5.718;2023-02-23T08:32:46;60.30;;;24.60;;
48052;SDS011;33824;51.600;5.718;2023-02-23T08:35:12;58.45;;;24.15;;
48052;SDS011;33824;51.600;5.718;2023-02-23T08:37:38;55.50;;;23.65;;
48052;SDS011;33824;51.600;5.718;2023-02-23T08:40:04;58.88;;;25.17;;
48052;SDS011;33824;51.600;5.718;2023-02-23T08:42:30;57.58;;;24.65;;
48052;SDS011;33824;51.600;5.718;2023-02-23T08:44:56;51.25;;;21.67;;
48052;SDS011;33824;51.600;5.718;2023-02-23T08:47:23;58.67;;;24.55;;
48052;SDS011;33824;51.600;5.718;2023-02-23T08:49:49;57.75;;;24.02;;
48052;SDS011;33824;51.600;5.718;2023-02-23T08:52:15;57.65;;;24.95;;
48052;SDS011;33824;51.600;5.718;2023-02-23T08:54:41;54.85;;;23.67;;
48052;SDS011;33824;51.600;5.718;2023-02-23T08:57:06;55.00;;;24.35;;
48052;SDS011;33824;51.600;5.718;2023-02-23T08:59:32;58.08;;;23.92;;
48052;SDS011;33824;51.600;5.718;2023-02-23T09:01:58;52.53;;;22.45;;
48052;SDS011;33824;51.600;5.718;2023-02-23T09:04:23;50.63;;;22.63;;
48052;SDS011;33824;51.600;5.718;2023-02-23T09:06:49;52.55;;;21.48;;
48052;SDS011;33824;51.600;5.718;2023-02-23T09:09:18;47.55;;;21.65;;
48052;SDS011;33824;51.600;5.718;2023-02-23T09:11:44;53.20;;;23.23;;
48052;SDS011;33824;51.600;5.718;2023-02-23T09:14:09;49.33;;;22.02;;
48052;SDS011;33824;51.600;5.718;2023-02-23T09:16:35;56.83;;;24.88;;
48052;SDS011;33824;51.600;5.718;2023-02-23T09:19:01;58.83;;;23.02;;
48052;SDS011;33824;51.600;5.718;2023-02-23T09:21:27;53.78;;;22.42;;
48052;SDS011;33824;51.600;5.718;2023-02-23T09:23:54;51.92;;;24.13;;
48052;SDS011;33824;51.600;5.718;2023-02-23T09:26:21;53.45;;;23.55;;
48052;SDS011;33824;51.600;5.718;2023-02-23T09:28:48;48.70;;;22.48;;
48052;SDS011;33824;51.600;5.718;2023-02-23T09:31:15;52.40;;;21.70;;
48052;SDS011;33824;51.600;5.718;2023-02-23T09:33:42;52.72;;;22.77;;
48052;SDS011;33824;51.600;5.718;2023-02-23T09:36:18;51.58;;;20.83;;
48052;SDS011;33824;51.600;5.718;2023-02-23T09:38:46;49.45;;;21.75;;
48052;SDS011;33824;51.600;5.718;2023-02-23T09:47:05;48.97;;;19.65;;
48052;SDS011;33824;51.600;5.718;2023-02-23T09:49:49;40.45;;;18.60;;
48052;SDS011;33824;51.600;5.718;2023-02-23T09:52:17;42.95;;;19.63;;
48052;SDS011;33824;51.600;5.718;2023-02-23T09:54:46;42.08;;;18.67;;
48052;SDS011;33824;51.600;5.718;2023-02-23T09:57:13;41.33;;;18.80;;
48052;SDS011;33824;51.600;5.718;2023-02-23T09:59:42;43.25;;;19.13;;
48052;SDS011;33824;51.600;5.718;2023-02-23T10:05:07;47.05;;;20.98;;
48052;SDS011;33824;51.600;5.718;2023-02-23T10:12:44;49.33;;;21.00;;
48052;SDS011;33824;51.600;5.718;2023-02-23T10:23:52;50.78;;;21.45;;
48052;SDS011;33824;51.600;5.718;2023-02-23T10:26:26;52.33;;;21.63;;
48052;SDS011;33824;51.600;5.718;2023-02-23T10:28:59;50.55;;;21.70;;
48052;SDS011;33824;51.600;5.718;2023-02-23T10:31:26;55.95;;;23.38;;
48052;SDS011;33824;51.600;5.718;2023-02-23T10:34:13;54.38;;;23.35;;
48052;SDS011;33824;51.600;5.718;2023-02-23T10:36:49;53.13;;;23.17;;
48052;SDS011;33824;51.600;5.718;2023-02-23T10:39:21;50.92;;;22.80;;
48052;SDS011;33824;51.600;5.718;2023-02-23T10:41:47;56.88;;;23.75;;
48052;SDS011;33824;51.600;5.718;2023-02-23T10:44:20;56.65;;;23.50;;
48052;SDS011;33824;51.600;5.718;2023-02-23T10:46:53;53.13;;;22.30;;
48052;SDS011;33824;51.600;5.718;2023-02-23T10:49:23;53.42;;;23.83;;
48052;SDS011;33824;51.600;5.718;2023-02-23T10:51:54;51.42;;;23.25;;
48052;SDS011;33824;51.600;5.718;2023-02-23T10:54:35;54.58;;;23.73;;
48052;SDS011;33824;51.600;5.718;2023-02-23T10:57:08;53.45;;;22.77;;
48052;SDS011;33824;51.600;5.718;2023-02-23T10:59:39;52.65;;;23.50;;
48052;SDS011;33824;51.600;5.718;2023-02-23T11:02:22;55.33;;;24.20;;
48052;SDS011;33824;51.600;5.718;2023-02-23T11:04:50;55.75;;;23.42;;
48052;SDS011;33824;51.600;5.718;2023-02-23T11:07:22;53.95;;;25.42;;
48052;SDS011;33824;51.600;5.718;2023-02-23T11:09:53;53.88;;;23.15;;
48052;SDS011;33824;51.600;5.718;2023-02-23T11:12:24;59.22;;;24.02;;
48052;SDS011;33824;51.600;5.718;2023-02-23T11:18:02;53.53;;;24.17;;
48052;SDS011;33824;51.600;5.718;2023-02-23T11:20:30;49.95;;;23.63;;
48052;SDS011;33824;51.600;5.718;2023-02-23T11:23:16;53.67;;;22.60;;
48052;SDS011;33824;51.600;5.718;2023-02-23T11:25:47;49.25;;;22.80;;
48052;SDS011;33824;51.600;5.718;2023-02-23T11:28:18;54.70;;;23.77;;
48052;SDS011;33824;51.600;5.718;2023-02-23T11:30:48;55.00;;;23.77;;
48052;SDS011;33824;51.600;5.718;2023-02-23T11:33:15;52.72;;;23.58;;
48052;SDS011;33824;51.600;5.718;2023-02-23T11:35:43;50.45;;;22.13;;
48052;SDS011;33824;51.600;5.718;2023-02-23T11:40:47;50.65;;;22.23;;
48052;SDS011;33824;51.600;5.718;2023-02-23T11:43:23;51.88;;;23.00;;
48052;SDS011;33824;51.600;5.718;2023-02-23T11:45:49;50.10;;;21.17;;
48052;SDS011;33824;51.600;5.718;2023-02-23T11:48:39;52.30;;;23.48;;
48052;SDS011;33824;51.600;5.718;2023-02-23T11:51:21;47.88;;;21.13;;
48052;SDS011;33824;51.600;5.718;2023-02-23T11:53:49;51.80;;;21.55;;
48052;SDS011;33824;51.600;5.718;2023-02-23T11:56:18;46.92;;;21.02;;
48052;SDS011;33824;51.600;5.718;2023-02-23T12:01:52;50.28;;;21.13;;
48052;SDS011;33824;51.600;5.718;2023-02-23T12:04:27;48.67;;;21.25;;
48052;SDS011;33824;51.600;5.718;2023-02-23T12:07:43;49.97;;;22.13;;
48052;SDS011;33824;51.600;5.718;2023-02-23T12:09:43;48.38;;;20.25;;
48052;SDS011;33824;51.600;5.718;2023-02-23T12:12:14;43.08;;;19.98;;
48052;SDS011;33824;51.600;5.718;2023-02-23T12:14:45;51.70;;;21.23;;
48052;SDS011;33824;51.600;5.718;2023-02-23T12:17:17;44.42;;;20.05;;
48052;SDS011;33824;51.600;5.718;2023-02-23T12:19:57;46.50;;;19.58;;
48052;SDS011;33824;51.600;5.718;2023-02-23T12:22:31;40.47;;;18.67;;
48052;SDS011;33824;51.600;5.718;2023-02-23T12:25:05;41.03;;;17.55;;
48052;SDS011;33824;51.600;5.718;2023-02-23T12:27:46;40.45;;;19.20;;
48052;SDS011;33824;51.600;5.718;2023-02-23T12:30:22;42.00;;;18.38;;
48052;SDS011;33824;51.600;5.718;2023-02-23T12:33:00;42.30;;;19.13;;
48052;SDS011;33824;51.600;5.718;2023-02-23T12:35:40;46.40;;;20.45;;
48052;SDS011;33824;51.600;5.718;2023-02-23T12:38:22;44.13;;;20.88;;
48052;SDS011;33824;51.600;5.718;2023-02-23T12:41:35;41.38;;;18.85;;
48052;SDS011;33824;51.600;5.718;2023-02-23T12:44:51;44.05;;;19.95;;
48052;SDS011;33824;51.600;5.718;2023-02-23T12:46:54;46.67;;;20.90;;
48052;SDS011;33824;51.600;5.718;2023-02-23T12:49:38;42.78;;;19.48;;
48052;SDS011;33824;51.600;5.718;2023-02-23T12:52:10;47.80;;;20.10;;
48052;SDS011;33824;51.600;5.718;2023-02-23T12:54:41;38.75;;;18.30;;
48052;SDS011;33824;51.600;5.718;2023-02-23T12:57:18;35.67;;;17.38;;
48052;SDS011;33824;51.600;5.718;2023-02-23T13:07:38;33.70;;;15.02;;
48052;SDS011;33824;51.600;5.718;2023-02-23T13:10:12;29.27;;;14.77;;
48052;SDS011;33824;51.600;5.718;2023-02-23T13:13:02;29.23;;;13.00;;
48052;SDS011;33824;51.600;5.718;2023-02-23T13:23:31;23.10;;;12.02;;
48052;SDS011;33824;51.600;5.718;2023-02-23T13:26:20;27.25;;;12.85;;
48052;SDS011;33824;51.600;5.718;2023-02-23T13:28:53;26.05;;;12.57;;
48052;SDS011;33824;51.600;5.718;2023-02-23T13:31:25;22.48;;;10.25;;
48052;SDS011;33824;51.600;5.718;2023-02-23T13:34:03;20.42;;;10.48;;
48052;SDS011;33824;51.600;5.718;2023-02-23T13:36:33;21.83;;;10.32;;
48052;SDS011;33824;51.600;5.718;2023-02-23T13:39:07;18.40;;;10.05;;
48052;SDS011;33824;51.600;5.718;2023-02-23T13:41:48;19.02;;;9.82;;
48052;SDS011;33824;51.600;5.718;2023-02-23T13:53:04;12.80;;;7.18;;
48052;SDS011;33824;51.600;5.718;2023-02-23T13:55:45;15.80;;;7.78;;
48052;SDS011;33824;51.600;5.718;2023-02-23T13:58:16;15.00;;;6.25;;
48052;SDS011;33824;51.600;5.718;2023-02-23T14:01:21;14.02;;;7.15;;
48052;SDS011;33824;51.600;5.718;2023-02-23T14:03:45;13.02;;;7.00;;
48052;SDS011;33824;51.600;5.718;2023-02-23T14:06:37;13.52;;;7.25;;
48052;SDS011;33824;51.600;5.718;2023-02-23T14:09:08;12.20;;;6.15;;
48052;SDS011;33824;51.600;5.718;2023-02-23T14:11:43;15.20;;;6.80;;
48052;SDS011;33824;51.600;5.718;2023-02-23T14:22:26;12.52;;;6.82;;
48052;SDS011;33824;51.600;5.718;2023-02-23T14:27:56;11.63;;;6.38;;
48052;SDS011;33824;51.600;5.718;2023-02-23T14:30:27;17.45;;;7.88;;
48052;SDS011;33824;51.600;5.718;2023-02-23T14:32:54;14.48;;;6.97;;
48052;SDS011;33824;51.600;5.718;2023-02-23T14:38:02;12.57;;;6.85;;
48052;SDS011;33824;51.600;5.718;2023-02-23T14:40:36;15.32;;;6.38;;
48052;SDS011;33824;51.600;5.718;2023-02-23T14:43:29;14.40;;;6.93;;
48052;SDS011;33824;51.600;5.718;2023-02-23T14:45:55;15.82;;;7.07;;
48052;SDS011;33824;51.600;5.718;2023-02-23T14:48:21;16.27;;;6.97;;
48052;SDS011;33824;51.600;5.718;2023-02-23T14:50:47;13.95;;;6.68;;
48052;SDS011;33824;51.600;5.718;2023-02-23T14:53:18;15.65;;;8.20;;
48052;SDS011;33824;51.600;5.718;2023-02-23T14:58:22;16.90;;;7.97;;
48052;SDS011;33824;51.600;5.718;2023-02-23T15:00:53;21.65;;;7.78;;
48052;SDS011;33824;51.600;5.718;2023-02-23T15:03:19;21.17;;;8.40;;
48052;SDS011;33824;51.600;5.718;2023-02-23T15:05:50;20.27;;;8.63;;
48052;SDS011;33824;51.600;5.718;2023-02-23T15:08:36;15.48;;;7.00;;
48052;SDS011;33824;51.600;5.718;2023-02-23T15:11:12;17.90;;;7.95;;
48052;SDS011;33824;51.600;5.718;2023-02-23T15:13:39;17.20;;;7.88;;
48052;SDS011;33824;51.600;5.718;2023-02-23T15:16:13;20.10;;;8.27;;
48052;SDS011;33824;51.600;5.718;2023-02-23T15:18:42;19.67;;;8.32;;
48052;SDS011;33824;51.600;5.718;2023-02-23T15:21:16;19.45;;;8.45;;
48052;SDS011;33824;51.600;5.718;2023-02-23T15:23:44;20.08;;;8.55;;
48052;SDS011;33824;51.600;5.718;2023-02-23T15:29:06;21.35;;;8.40;;
48052;SDS011;33824;51.600;5.718;2023-02-23T15:31:38;22.13;;;9.13;;
48052;SDS011;33824;51.600;5.718;2023-02-23T15:34:15;18.05;;;7.70;;
48052;SDS011;33824;51.600;5.718;2023-02-23T15:36:45;21.83;;;7.78;;
48052;SDS011;33824;51.600;5.718;2023-02-23T15:39:16;16.13;;;6.95;;
48052;SDS011;33824;51.600;5.718;2023-02-23T15:41:46;17.48;;;7.45;;
48052;SDS011;33824;51.600;5.718;2023-02-23T15:44:21;18.83;;;8.20;;
48052;SDS011;33824;51.600;5.718;2023-02-23T15:46:53;19.77;;;7.78;;
48052;SDS011;33824;51.600;5.718;2023-02-23T15:49:24;22.10;;;7.07;;
48052;SDS011;33824;51.600;5.718;2023-02-23T15:54:27;15.57;;;6.95;;
48052;SDS011;33824;51.600;5.718;2023-02-23T15:56:56;15.48;;;6.40;;
48052;SDS011;33824;51.600;5.718;2023-02-23T15:59:27;15.52;;;6.93;;
48052;SDS011;33824;51.600;5.718;2023-02-23T16:01:58;19.40;;;7.65;;
48052;SDS011;33824;51.600;5.718;2023-02-23T16:04:36;16.27;;;7.00;;
48052;SDS011;33824;51.600;5.718;2023-02-23T16:07:21;15.70;;;6.80;;
48052;SDS011;33824;51.600;5.718;2023-02-23T16:09:52;16.33;;;7.38;;
48052;SDS011;33824;51.600;5.718;2023-02-23T16:12:20;14.88;;;6.85;;
48052;SDS011;33824;51.600;5.718;2023-02-23T16:14:50;16.73;;;6.75;;
48052;SDS011;33824;51.600;5.718;2023-02-23T16:17:20;15.52;;;6.93;;
48052;SDS011;33824;51.600;5.718;2023-02-23T16:19:57;15.35;;;6.88;;
48052;SDS011;33824;51.600;5.718;2023-02-23T16:22:40;15.63;;;5.97;;
48052;SDS011;33824;51.600;5.718;2023-02-23T16:25:14;15.77;;;6.90;;
48052;SDS011;33824;51.600;5.718;2023-02-23T16:27:42;14.82;;;6.95;;
48052;SDS011;33824;51.600;5.718;2023-02-23T16:30:14;16.42;;;6.47;;
48052;SDS011;33824;51.600;5.718;2023-02-23T16:32:48;20.33;;;6.70;;
48052;SDS011;33824;51.600;5.718;2023-02-23T16:35:32;14.00;;;6.45;;
48052;SDS011;33824;51.600;5.718;2023-02-23T16:38:01;17.30;;;6.95;;
48052;SDS011;33824;51.600;5.718;2023-02-23T16:40:28;11.77;;;5.97;;
48052;SDS011;33824;51.600;5.718;2023-02-23T16:42:54;16.85;;;7.03;;
48052;SDS011;33824;51.600;5.718;2023-02-23T16:45:24;14.85;;;6.50;;
48052;SDS011;33824;51.600;5.718;2023-02-23T16:47:51;17.20;;;6.90;;